Hundvaag 1 weather for Feb 2001
Month no. 164
Obs.
Da.
Temp. Dew Point Precip. Wind
Speed
Wind gusts Cloud cover Press. Humidity Wind dir. Sunny OPT
01.02.2001 -3,4   0,0     10 1022,3     1  
02.02.2001 -6,2   0,0     10 1022,7     1  
03.02.2001 -8,2   0,0     0 1020,1     1  
04.02.2001 -11,0   0,0     10 1019,9     1  
05.02.2001 -7,0   0,0     9 1012,0     1  
06.02.2001 -5,7   0,0     10 1007,7        
07.02.2001 3,5   8,8     0 996,1        
08.02.2001 0,6   4,1     7 1001,2     1  
09.02.2001 -2,7   1,2     10 1012,3     1  
10.02.2001 1,4   0,0     3 1022,1        
11.02.2001 3,5   3,4     0 1007,7        
12.02.2001 5,9   4,4     1 1011,9     1  
13.02.2001 2,2   1,3     8 1022,8        
14.02.2001 3,8   0,1     0 1022,8        
15.02.2001 0,1   0,1     10 1020,8        
16.02.2001 0,2   0,0     0 1023,6     1  
17.02.2001 4,4   0,2     9 1026,5        
18.02.2001 4,9   0,1     0 1025,7        
19.02.2001 3,9   0,0     0 1023,1     1  
20.02.2001 4,6   0,8     0 1022,4        
21.02.2001 2,4   7,1     0 1013,7     1  
22.02.2001 0,7   6,0     0 1011,2     1  
23.02.2001 -3,1   0,2     10 1010,3     1  
24.02.2001 0,4   3,9     2 1010,4     1  
25.02.2001 -3,8   5,6     10 1009,6     1  
26.02.2001 -2,8   7,4     0 1007,5     1  
27.02.2001 -2,9   8,8     0 1008,8     1  
28.02.2001 -5,5   0,1     0 1009,3     1  
                       
                       
                       
Avrg/Sum -0,7   63,6     4,3 1015,2     18